createdAt,value
2022-11-21T00:00:48.442Z,11.07
2022-11-21T00:03:15.355Z,12.37
2022-11-21T00:05:44.913Z,12.43
2022-11-21T00:08:13.295Z,11.53
2022-11-21T00:10:41.127Z,12.13
2022-11-21T00:13:12.168Z,13.13
2022-11-21T00:15:38.712Z,12.50
2022-11-21T00:18:05.539Z,13.17
2022-11-21T00:20:32.623Z,12.83
2022-11-21T00:22:59.167Z,12.90
2022-11-21T00:25:25.715Z,12.97
2022-11-21T00:27:52.959Z,13.47
2022-11-21T00:30:19.586Z,12.20
2022-11-21T00:32:46.120Z,12.23
2022-11-21T00:35:13.125Z,12.83
2022-11-21T00:37:40.000Z,12.73
2022-11-21T00:40:07.077Z,12.37
2022-11-21T00:42:33.695Z,13.00
2022-11-21T00:45:00.279Z,13.63
2022-11-21T00:47:26.910Z,12.63
2022-11-21T00:49:53.464Z,12.97
2022-11-21T00:52:19.996Z,12.90
2022-11-21T00:54:46.564Z,12.33
2022-11-21T00:57:13.158Z,12.20
2022-11-21T00:59:39.743Z,11.60
2022-11-21T01:02:06.337Z,11.90
2022-11-21T01:04:34.798Z,11.60
2022-11-21T01:07:01.500Z,11.97
2022-11-21T01:09:28.715Z,12.40
2022-11-21T01:11:56.462Z,12.30
2022-11-21T01:14:23.248Z,12.87
2022-11-21T01:16:49.940Z,11.73
2022-11-21T01:19:16.486Z,11.57
2022-11-21T01:21:43.133Z,12.07
2022-11-21T01:24:11.558Z,12.07
2022-11-21T01:26:38.155Z,11.97
2022-11-21T01:29:04.993Z,12.23
2022-11-21T01:31:31.660Z,12.43
2022-11-21T01:33:59.854Z,12.07
2022-11-21T01:36:31.756Z,11.73
2022-11-21T01:39:01.016Z,11.77
2022-11-21T01:41:33.398Z,11.30
2022-11-21T01:44:10.286Z,11.90
2022-11-21T01:46:36.855Z,12.37
2022-11-21T01:49:07.832Z,11.40
2022-11-21T01:52:01.302Z,11.27
2022-11-21T01:54:37.438Z,11.47
2022-11-21T01:57:12.089Z,11.20
2022-11-21T02:00:00.167Z,10.83
2022-11-21T02:02:33.589Z,10.43
2022-11-21T02:05:02.333Z,10.63
2022-11-21T02:07:32.243Z,11.27
2022-11-21T02:10:01.634Z,11.83
2022-11-21T02:12:39.452Z,11.43
2022-11-21T02:15:06.729Z,11.20
2022-11-21T02:17:33.793Z,11.20
2022-11-21T02:20:07.055Z,11.80
2022-11-21T02:22:45.119Z,11.33
2022-11-21T02:25:30.498Z,11.63
2022-11-21T02:28:02.150Z,10.63
2022-11-21T02:30:35.118Z,12.07
2022-11-21T02:33:01.689Z,11.27
2022-11-21T02:35:28.362Z,11.40
2022-11-21T02:38:18.171Z,11.73
2022-11-21T02:40:54.820Z,11.73
2022-11-21T02:43:32.594Z,11.77
2022-11-21T02:45:59.140Z,11.00
2022-11-21T02:48:25.716Z,11.37
2022-11-21T02:50:52.264Z,11.67
2022-11-21T02:53:19.418Z,11.17
2022-11-21T02:55:45.974Z,11.63
2022-11-21T02:58:12.763Z,11.03
2022-11-21T03:00:41.167Z,11.40
2022-11-21T03:03:08.042Z,11.47
2022-11-21T03:05:35.009Z,11.33
2022-11-21T03:08:01.616Z,12.10
2022-11-21T03:10:28.180Z,12.20
2022-11-21T03:13:01.089Z,11.07
2022-11-21T03:15:30.484Z,11.93
2022-11-21T03:17:57.444Z,11.37
2022-11-21T03:20:24.658Z,11.33
2022-11-21T03:22:53.329Z,11.60
2022-11-21T03:25:20.317Z,11.40
2022-11-21T03:27:47.051Z,11.20
2022-11-21T03:30:13.733Z,12.17
2022-11-21T03:32:40.283Z,11.10
2022-11-21T03:35:07.148Z,11.70
2022-11-21T03:37:33.743Z,12.17
2022-11-21T03:40:00.309Z,11.83
2022-11-21T03:42:27.731Z,11.70
2022-11-21T03:44:54.265Z,11.70
2022-11-21T03:47:20.802Z,12.30
2022-11-21T03:49:47.350Z,12.40
2022-11-21T03:52:13.870Z,11.87
2022-11-21T03:54:40.421Z,11.97
2022-11-21T03:57:06.961Z,11.97
2022-11-21T03:59:33.526Z,11.97
2022-11-21T04:02:00.157Z,11.13
2022-11-21T04:04:27.061Z,11.47
2022-11-21T04:06:53.866Z,11.70
2022-11-21T04:09:20.421Z,12.00
2022-11-21T04:11:46.968Z,11.73
2022-11-21T04:14:13.517Z,12.43
2022-11-21T04:16:40.077Z,11.37
2022-11-21T04:19:06.605Z,11.40
2022-11-21T04:21:33.152Z,12.50
2022-11-21T04:23:59.677Z,11.77
2022-11-21T04:26:26.209Z,11.73
2022-11-21T04:28:52.761Z,12.27
2022-11-21T04:31:19.357Z,12.60
2022-11-21T04:33:45.915Z,13.27
2022-11-21T04:36:12.478Z,20.70
2022-11-21T04:38:39.018Z,22.50
2022-11-21T04:41:05.557Z,19.63
2022-11-21T04:43:32.215Z,14.57
2022-11-21T04:45:58.728Z,12.93
2022-11-21T04:48:25.274Z,12.90
2022-11-21T04:50:51.931Z,12.97
2022-11-21T04:53:18.498Z,12.73
2022-11-21T04:55:45.052Z,11.77
2022-11-21T04:58:11.631Z,13.63
2022-11-21T05:00:38.199Z,12.53
2022-11-21T05:03:06.267Z,13.37
2022-11-21T05:05:33.206Z,13.30
2022-11-21T05:07:59.832Z,12.90
2022-11-21T05:10:26.414Z,13.77
2022-11-21T05:13:18.901Z,12.90
2022-11-21T05:15:45.868Z,12.67
2022-11-21T05:18:12.659Z,13.73
2022-11-21T05:20:39.345Z,13.63
2022-11-21T05:23:05.924Z,13.57
2022-11-21T05:25:32.593Z,13.60
2022-11-21T05:27:59.140Z,13.13
2022-11-21T05:30:25.885Z,12.87
2022-11-21T05:32:52.405Z,13.17
2022-11-21T05:35:19.074Z,14.00
2022-11-21T05:37:45.617Z,13.30
2022-11-21T05:40:12.422Z,16.43
2022-11-21T05:42:58.623Z,13.50
2022-11-21T05:45:25.174Z,12.07
2022-11-21T05:47:51.734Z,12.30
2022-11-21T05:50:18.279Z,12.67
2022-11-21T05:52:44.811Z,12.67
2022-11-21T05:55:11.341Z,12.10
2022-11-21T05:57:37.918Z,12.50
2022-11-21T06:00:04.890Z,12.97
2022-11-21T06:02:50.024Z,12.37
2022-11-21T06:05:16.802Z,12.53
2022-11-21T06:07:43.490Z,12.60
2022-11-21T06:10:10.147Z,12.53
2022-11-21T06:12:36.680Z,13.43
2022-11-21T06:15:03.409Z,13.20
2022-11-21T06:17:29.967Z,13.43
2022-11-21T06:19:56.509Z,14.20
2022-11-21T06:22:23.060Z,13.47
2022-11-21T06:24:49.637Z,13.53
2022-11-21T06:27:16.186Z,12.97
2022-11-21T06:29:42.714Z,13.57
2022-11-21T06:32:09.328Z,14.03
2022-11-21T06:34:35.878Z,12.90
2022-11-21T06:37:02.432Z,13.30
2022-11-21T06:39:28.984Z,13.53
2022-11-21T06:41:55.596Z,13.23
2022-11-21T06:44:22.125Z,13.30
2022-11-21T06:46:51.405Z,12.77
2022-11-21T06:49:18.392Z,13.23
2022-11-21T06:51:45.084Z,13.03
2022-11-21T06:54:16.560Z,12.80
2022-11-21T06:56:43.850Z,12.90
2022-11-21T06:59:10.402Z,12.90
2022-11-21T07:01:37.079Z,13.00
2022-11-21T07:04:03.850Z,12.83
2022-11-21T07:06:30.713Z,13.47
2022-11-21T07:09:31.072Z,13.67
2022-11-21T07:11:44.043Z,12.93
2022-11-21T07:14:10.679Z,13.63
2022-11-21T07:16:37.960Z,13.90
2022-11-21T07:19:04.596Z,13.87
2022-11-21T07:21:31.204Z,13.67
2022-11-21T07:23:57.737Z,14.30
2022-11-21T07:26:24.287Z,12.87
2022-11-21T07:28:50.841Z,13.17
2022-11-21T07:31:17.409Z,13.33
2022-11-21T07:33:44.047Z,14.13
2022-11-21T07:36:12.160Z,15.23
2022-11-21T07:38:38.808Z,14.37
2022-11-21T07:41:05.375Z,14.40
2022-11-21T07:43:31.997Z,14.43
2022-11-21T07:45:58.543Z,14.50
2022-11-21T07:48:25.261Z,15.60
2022-11-21T07:50:51.840Z,15.73
2022-11-21T07:53:18.459Z,17.03
2022-11-21T07:55:45.057Z,16.60
2022-11-21T07:58:14.955Z,16.80
2022-11-21T08:00:44.776Z,16.07
2022-11-21T08:03:12.912Z,16.43
2022-11-21T08:05:43.779Z,16.67
2022-11-21T08:08:12.424Z,15.67
2022-11-21T08:10:40.604Z,16.27
2022-11-21T08:13:07.359Z,18.57
2022-11-21T08:15:34.218Z,16.90
2022-11-21T08:18:11.047Z,17.10
2022-11-21T08:20:37.756Z,16.07
2022-11-21T08:23:05.933Z,17.13
2022-11-21T08:25:33.967Z,15.50
2022-11-21T08:28:02.049Z,16.77
2022-11-21T08:30:28.876Z,16.67
2022-11-21T08:32:57.161Z,17.10
2022-11-21T08:35:23.693Z,16.83
2022-11-21T08:37:55.464Z,16.93
2022-11-21T08:40:22.001Z,12.73
2022-11-21T08:42:48.552Z,14.70
2022-11-21T08:45:15.194Z,13.20
2022-11-21T08:47:41.849Z,13.57
2022-11-21T08:50:09.409Z,14.10
2022-11-21T08:52:36.074Z,13.90
2022-11-21T08:55:02.619Z,14.77
2022-11-21T08:57:29.236Z,14.97
2022-11-21T08:59:55.823Z,16.03
2022-11-21T09:02:22.481Z,15.30
2022-11-21T09:04:49.333Z,15.53
2022-11-21T09:07:15.965Z,15.53
2022-11-21T09:09:42.555Z,15.53
2022-11-21T09:12:09.129Z,15.97
2022-11-21T09:14:54.320Z,16.13
2022-11-21T09:17:39.798Z,16.57
2022-11-21T09:20:06.701Z,16.33
2022-11-21T09:22:33.289Z,15.97
2022-11-21T09:24:59.897Z,16.77
2022-11-21T09:27:26.456Z,14.30
2022-11-21T09:29:54.345Z,15.27
2022-11-21T09:32:21.250Z,14.10
2022-11-21T09:34:47.818Z,13.50
2022-11-21T09:37:14.459Z,13.30
2022-11-21T09:39:41.004Z,13.37
2022-11-21T09:42:26.361Z,14.73
2022-11-21T09:45:14.893Z,13.97
2022-11-21T09:47:50.478Z,14.43
2022-11-21T09:50:26.888Z,13.33
2022-11-21T09:53:17.574Z,13.30
2022-11-21T09:55:48.918Z,12.50
2022-11-21T09:58:38.251Z,11.63
2022-11-21T10:01:05.004Z,11.90
2022-11-21T10:03:40.866Z,10.87
2022-11-21T10:06:42.641Z,12.20
2022-11-21T10:09:40.354Z,12.53
2022-11-21T10:12:36.902Z,12.17
2022-11-21T10:15:37.954Z,10.83
2022-11-21T10:18:31.525Z,11.07
2022-11-21T10:21:25.963Z,11.23
2022-11-21T10:24:35.788Z,10.50
2022-11-21T10:27:13.444Z,10.57
2022-11-21T10:30:01.687Z,10.03
2022-11-21T10:32:38.521Z,10.67
2022-11-21T10:35:15.432Z,10.03
2022-11-21T10:37:54.327Z,11.20
2022-11-21T10:40:26.497Z,11.00
2022-11-21T10:43:21.858Z,11.50
2022-11-21T10:45:49.887Z,11.03
2022-11-21T10:48:16.409Z,11.40
2022-11-21T10:51:13.557Z,10.07
2022-11-21T10:54:04.644Z,10.27
2022-11-21T10:56:34.345Z,8.43
2022-11-21T10:59:13.369Z,8.80
2022-11-21T11:01:39.943Z,9.77
2022-11-21T11:04:27.829Z,8.50
2022-11-21T11:07:27.730Z,8.23
2022-11-21T11:10:26.880Z,8.70
2022-11-21T11:13:46.918Z,8.13
2022-11-21T11:16:18.912Z,7.87
2022-11-21T11:18:54.171Z,8.30
2022-11-21T11:21:26.591Z,8.10
2022-11-21T11:23:54.573Z,9.80
2022-11-21T11:26:27.197Z,8.80
2022-11-21T11:29:04.471Z,8.13
2022-11-21T11:31:40.855Z,8.60
2022-11-21T11:34:12.904Z,8.70
2022-11-21T11:37:07.194Z,7.50
2022-11-21T11:39:48.717Z,7.50
2022-11-21T11:42:57.341Z,8.90
2022-11-21T11:46:05.259Z,8.80
2022-11-21T11:48:50.122Z,8.63
2022-11-21T11:51:33.034Z,9.23
2022-11-21T11:54:08.640Z,9.67
2022-11-21T11:56:38.516Z,9.33
2022-11-21T11:59:26.210Z,9.63
2022-11-21T12:02:16.585Z,9.60
2022-11-21T12:04:52.934Z,10.20
2022-11-21T12:11:24.901Z,10.23
2022-11-21T12:13:55.414Z,10.50
2022-11-21T12:16:24.472Z,10.73
2022-11-21T12:19:14.351Z,10.30
2022-11-21T12:21:41.078Z,9.63
2022-11-21T12:24:10.373Z,9.73
2022-11-21T12:26:53.496Z,10.20
2022-11-21T12:29:34.890Z,10.13
2022-11-21T12:32:18.486Z,10.67
2022-11-21T12:35:16.504Z,11.57
2022-11-21T12:38:12.563Z,13.70
2022-11-21T12:41:35.200Z,13.57
2022-11-21T12:44:19.797Z,15.03
2022-11-21T12:47:53.810Z,12.53
2022-11-21T12:50:48.937Z,12.77
2022-11-21T12:54:08.427Z,12.60
2022-11-21T12:57:05.510Z,14.13
2022-11-21T12:59:39.365Z,13.00
2022-11-21T13:02:18.820Z,13.47
2022-11-21T13:04:47.175Z,12.00
2022-11-21T13:07:14.416Z,11.53
2022-11-21T13:09:43.515Z,12.47
2022-11-21T13:12:22.151Z,12.90
2022-11-21T13:14:58.411Z,10.43
2022-11-21T13:17:30.603Z,10.50
2022-11-21T13:20:16.035Z,10.17
2022-11-21T13:22:45.429Z,10.27
2022-11-21T13:25:22.066Z,9.07
2022-11-21T13:27:49.569Z,9.23
2022-11-21T13:30:18.046Z,8.93
2022-11-21T13:32:47.183Z,9.50
2022-11-21T13:35:16.537Z,9.17
2022-11-21T13:37:52.410Z,9.30
2022-11-21T13:40:38.956Z,8.80
2022-11-21T13:43:33.199Z,9.33
2022-11-21T13:46:00.795Z,8.87
2022-11-21T13:49:11.353Z,9.23
2022-11-21T13:51:49.031Z,9.77
2022-11-21T13:54:41.030Z,9.27
2022-11-21T13:57:40.123Z,8.40
2022-11-21T14:00:17.004Z,8.37
2022-11-21T14:03:05.134Z,8.73
2022-11-21T14:05:56.058Z,8.00
2022-11-21T14:08:27.549Z,7.93
2022-11-21T14:10:56.161Z,8.23
2022-11-21T14:13:34.703Z,8.20
2022-11-21T14:16:04.017Z,9.17
2022-11-21T14:18:31.654Z,8.60
2022-11-21T14:21:00.537Z,9.20
2022-11-21T14:23:33.163Z,9.17
2022-11-21T14:26:04.073Z,8.93
2022-11-21T14:28:32.827Z,9.97
2022-11-21T14:31:07.687Z,10.53
2022-11-21T14:33:47.396Z,9.70
2022-11-21T14:36:17.313Z,9.87
2022-11-21T14:38:44.888Z,10.33
2022-11-21T14:41:26.738Z,9.17
2022-11-21T14:43:59.566Z,9.70
2022-11-21T14:46:27.870Z,9.50
2022-11-21T14:48:57.199Z,9.60
2022-11-21T14:51:25.484Z,9.33
2022-11-21T14:53:53.624Z,8.80
2022-11-21T14:56:29.202Z,9.27
2022-11-21T14:58:58.683Z,9.30
2022-11-21T15:01:29.259Z,8.63
2022-11-21T15:04:07.595Z,9.50
2022-11-21T15:06:42.779Z,10.10
2022-11-21T15:10:25.688Z,10.20
2022-11-21T15:12:07.847Z,9.73
2022-11-21T15:14:49.030Z,10.50
2022-11-21T15:17:20.589Z,10.03
2022-11-21T15:19:47.304Z,9.73
2022-11-21T15:22:38.285Z,9.83
2022-11-21T15:25:15.537Z,9.63
2022-11-21T15:27:42.680Z,9.63
2022-11-21T15:30:12.460Z,10.23
2022-11-21T15:33:01.822Z,10.57
2022-11-21T15:35:39.184Z,10.87
2022-11-21T15:38:27.662Z,10.30
2022-11-21T15:41:03.787Z,11.07
2022-11-21T15:43:42.116Z,11.17
2022-11-21T15:46:33.078Z,11.30
2022-11-21T15:49:31.117Z,11.83
2022-11-21T15:52:06.531Z,11.17
2022-11-21T15:54:33.768Z,12.23
2022-11-21T15:57:00.320Z,11.50
2022-11-21T15:59:27.066Z,11.97
2022-11-21T16:01:53.889Z,11.93
2022-11-21T16:04:25.302Z,11.97
2022-11-21T16:06:53.231Z,12.30
2022-11-21T16:09:19.757Z,12.47
2022-11-21T16:11:47.096Z,12.23
2022-11-21T16:14:15.560Z,12.73
2022-11-21T16:16:43.793Z,11.93
2022-11-21T16:19:11.753Z,12.67
2022-11-21T16:21:38.660Z,12.43
2022-11-21T16:24:05.479Z,13.60
2022-11-21T16:26:33.577Z,13.73
2022-11-21T16:29:03.725Z,12.57
2022-11-21T16:31:31.465Z,12.60
2022-11-21T16:33:58.643Z,12.27
2022-11-21T16:36:27.703Z,12.53
2022-11-21T16:38:54.959Z,12.30
2022-11-21T16:41:22.812Z,12.33
2022-11-21T16:43:52.705Z,11.90
2022-11-21T16:46:20.951Z,11.47
2022-11-21T16:48:47.928Z,14.07
2022-11-21T16:51:19.951Z,12.67
2022-11-21T16:53:48.269Z,11.77
2022-11-21T16:56:15.603Z,12.00
2022-11-21T16:58:42.726Z,11.90
2022-11-21T17:01:10.761Z,11.33
2022-11-21T17:03:38.880Z,11.90
2022-11-21T17:06:05.937Z,12.03
2022-11-21T17:08:33.157Z,11.23
2022-11-21T17:10:59.752Z,11.90
2022-11-21T17:13:26.779Z,11.83
2022-11-21T17:15:53.314Z,12.03
2022-11-21T17:18:19.929Z,12.00
2022-11-21T17:20:46.466Z,12.17
2022-11-21T17:23:13.027Z,13.30
2022-11-21T17:25:39.552Z,12.93
2022-11-21T17:28:06.120Z,14.20
2022-11-21T17:30:34.285Z,14.00
2022-11-21T17:33:02.089Z,12.23
2022-11-21T17:35:28.629Z,13.50
2022-11-21T17:37:55.165Z,13.30
2022-11-21T17:40:21.760Z,13.17
2022-11-21T17:42:48.309Z,14.97
2022-11-21T17:45:14.860Z,15.93
2022-11-21T17:47:42.151Z,15.60
2022-11-21T17:50:09.615Z,14.70
2022-11-21T17:52:36.167Z,13.63
2022-11-21T17:55:02.767Z,14.10
2022-11-21T17:57:29.349Z,13.57
2022-11-21T17:59:55.901Z,13.70
2022-11-21T18:02:22.655Z,13.33
2022-11-21T18:04:50.277Z,14.03
2022-11-21T18:07:17.061Z,13.50
2022-11-21T18:09:43.674Z,14.27
2022-11-21T18:12:10.619Z,13.93
2022-11-21T18:14:37.236Z,13.33
2022-11-21T18:17:03.809Z,13.97
2022-11-21T18:19:30.450Z,13.97
2022-11-21T18:21:57.442Z,14.10
2022-11-21T18:24:23.977Z,13.23
2022-11-21T18:26:50.728Z,14.13
2022-11-21T18:32:04.744Z,14.33
2022-11-21T18:34:31.292Z,14.33
2022-11-21T18:36:57.878Z,14.70
2022-11-21T18:39:26.745Z,15.03
2022-11-21T18:41:53.500Z,13.93
2022-11-21T18:44:22.483Z,14.57
2022-11-21T18:46:49.958Z,14.57
2022-11-21T18:49:16.525Z,15.37
2022-11-21T18:51:43.313Z,14.07
2022-11-21T18:54:11.189Z,15.30
2022-11-21T18:56:39.108Z,15.57
2022-11-21T18:59:06.890Z,14.47
2022-11-21T19:01:35.603Z,14.50
2022-11-21T19:04:02.526Z,15.23
2022-11-21T19:06:29.552Z,14.30
2022-11-21T19:08:57.670Z,13.60
2022-11-21T19:11:26.900Z,14.47
2022-11-21T19:13:55.531Z,15.60
2022-11-21T19:16:24.730Z,14.73
2022-11-21T19:19:18.706Z,15.63
2022-11-21T19:21:40.718Z,14.80
2022-11-21T19:24:10.281Z,15.40
2022-11-21T19:26:36.842Z,14.03
2022-11-21T19:29:03.482Z,14.97
2022-11-21T19:31:30.208Z,14.93
2022-11-21T19:33:57.575Z,14.27
2022-11-21T19:36:24.606Z,13.97
2022-11-21T19:38:52.050Z,14.30
2022-11-21T19:41:25.674Z,15.97
2022-11-21T19:43:58.685Z,14.30
2022-11-21T19:46:27.641Z,15.07
2022-11-21T19:48:56.191Z,14.47
2022-11-21T19:51:27.824Z,13.60
2022-11-21T19:53:54.471Z,13.47
2022-11-21T19:56:25.779Z,13.23
2022-11-21T19:58:53.168Z,12.43
2022-11-21T20:01:23.113Z,13.47
2022-11-21T20:03:52.040Z,13.60
2022-11-21T20:06:30.706Z,13.47
2022-11-21T20:08:59.874Z,13.10
2022-11-21T20:11:28.183Z,13.57
2022-11-21T20:13:54.793Z,12.63
2022-11-21T20:16:24.562Z,12.83
2022-11-21T20:18:52.284Z,12.50
2022-11-21T20:21:19.750Z,13.07
2022-11-21T20:23:46.781Z,12.33
2022-11-21T20:26:14.308Z,13.13
2022-11-21T20:28:41.278Z,12.03
2022-11-21T20:31:10.233Z,11.63
2022-11-21T20:33:41.758Z,12.20
2022-11-21T20:36:18.558Z,11.67
2022-11-21T20:38:56.162Z,11.63
2022-11-21T20:41:26.114Z,11.13
2022-11-21T20:46:47.690Z,10.53
2022-11-21T20:49:14.427Z,10.23
2022-11-21T20:54:28.119Z,10.43
2022-11-21T20:56:54.986Z,9.57
2022-11-21T20:59:21.628Z,10.23
2022-11-21T21:01:48.281Z,9.83
2022-11-21T21:04:14.899Z,9.90
2022-11-21T21:06:41.524Z,10.27
2022-11-21T21:09:08.053Z,10.57
2022-11-21T21:11:51.433Z,10.30
2022-11-21T21:14:18.965Z,10.77
2022-11-21T21:16:45.554Z,10.97
2022-11-21T21:19:12.112Z,9.50
2022-11-21T21:21:40.153Z,9.53
2022-11-21T21:24:08.529Z,9.53
2022-11-21T21:26:42.825Z,10.00
2022-11-21T21:29:18.072Z,9.90
2022-11-21T21:31:50.577Z,9.87
2022-11-21T21:34:19.153Z,10.23
2022-11-21T21:36:45.748Z,9.83
2022-11-21T21:39:12.363Z,10.00
2022-11-21T21:41:45.760Z,10.00
2022-11-21T21:44:12.489Z,10.77
2022-11-21T21:46:39.082Z,10.50
2022-11-21T21:49:05.654Z,10.27
2022-11-21T21:51:32.398Z,10.43
2022-11-21T21:53:59.744Z,10.73
2022-11-21T21:56:28.613Z,10.93
2022-11-21T21:58:56.969Z,10.60
2022-11-21T22:01:29.230Z,10.67
2022-11-21T22:04:00.590Z,11.33
2022-11-21T22:06:27.530Z,10.90
2022-11-21T22:08:55.127Z,11.30
2022-11-21T22:11:26.884Z,10.17
2022-11-21T22:14:01.010Z,11.13
2022-11-21T22:16:28.794Z,10.90
2022-11-21T22:18:55.705Z,10.53
2022-11-21T22:21:32.615Z,10.97
2022-11-21T22:24:27.130Z,10.73
2022-11-21T22:26:54.135Z,11.13
2022-11-21T22:29:20.673Z,10.77
2022-11-21T22:31:47.267Z,11.63
2022-11-21T22:34:14.295Z,10.40
2022-11-21T22:36:41.441Z,11.27
2022-11-21T22:39:08.001Z,11.73
2022-11-21T22:41:34.584Z,10.93
2022-11-21T22:44:01.677Z,10.73
2022-11-21T22:46:29.753Z,11.30
2022-11-21T22:48:56.373Z,11.27
2022-11-21T22:51:25.237Z,11.27
2022-11-21T22:53:52.179Z,11.57
2022-11-21T22:56:21.497Z,10.63
2022-11-21T22:58:49.341Z,10.80
2022-11-21T23:01:18.751Z,11.13
2022-11-21T23:03:46.065Z,11.00
2022-11-21T23:06:17.621Z,10.77
2022-11-21T23:08:44.945Z,10.43
2022-11-21T23:11:17.241Z,11.17
2022-11-21T23:13:45.149Z,10.83
2022-11-21T23:16:12.963Z,11.13
2022-11-21T23:18:40.246Z,13.20
2022-11-21T23:21:07.384Z,10.87
2022-11-21T23:23:33.976Z,10.67
2022-11-21T23:26:00.648Z,11.20
2022-11-21T23:28:28.135Z,10.87
2022-11-21T23:30:54.743Z,9.93
2022-11-21T23:33:21.777Z,10.03
2022-11-21T23:35:48.375Z,11.00
2022-11-21T23:38:16.435Z,11.23
2022-11-21T23:40:48.484Z,10.83
2022-11-21T23:43:16.258Z,10.07
2022-11-21T23:45:43.469Z,9.60
2022-11-21T23:48:10.089Z,10.30
2022-11-21T23:50:36.777Z,9.50
2022-11-21T23:53:03.336Z,10.00
2022-11-21T23:55:29.892Z,10.00
2022-11-21T23:57:56.486Z,10.60
